createdAt,value
2017-06-26T00:00:45.862Z,59.50
2017-06-26T00:03:13.337Z,59.60
2017-06-26T00:05:40.804Z,59.70
2017-06-26T00:08:08.515Z,59.80
2017-06-26T00:10:35.969Z,59.60
2017-06-26T00:13:03.835Z,59.80
2017-06-26T00:15:31.733Z,59.80
2017-06-26T00:17:59.205Z,59.80
2017-06-26T00:20:26.662Z,59.70
2017-06-26T00:22:54.158Z,59.90
2017-06-26T00:25:21.612Z,60.00
2017-06-26T00:27:49.064Z,60.00
2017-06-26T00:30:16.549Z,60.10
2017-06-26T00:32:43.993Z,60.30
2017-06-26T00:35:11.492Z,60.30
2017-06-26T00:37:39.281Z,60.40
2017-06-26T00:40:07.136Z,60.60
2017-06-26T00:42:35.030Z,60.70
2017-06-26T00:45:02.974Z,60.70
2017-06-26T00:47:30.457Z,60.80
2017-06-26T00:49:58.318Z,60.90
2017-06-26T00:52:26.220Z,60.90
2017-06-26T00:54:53.668Z,60.90
2017-06-26T00:57:21.120Z,60.90
2017-06-26T00:59:49.001Z,60.90
2017-06-26T01:02:16.444Z,60.90
2017-06-26T01:04:44.293Z,61.00
2017-06-26T01:07:11.784Z,61.00
2017-06-26T01:09:39.641Z,61.00
2017-06-26T01:12:07.091Z,61.00
2017-06-26T01:14:34.564Z,61.00
2017-06-26T01:17:02.016Z,61.10
2017-06-26T01:19:29.481Z,61.20
2017-06-26T01:21:57.242Z,61.30
2017-06-26T01:24:24.706Z,61.30
2017-06-26T01:26:52.156Z,61.40
2017-06-26T01:29:19.646Z,61.40
2017-06-26T01:31:47.107Z,61.50
2017-06-26T01:34:14.557Z,61.50
2017-06-26T01:36:42.319Z,61.60
2017-06-26T01:39:09.772Z,61.70
2017-06-26T01:41:37.230Z,61.90
2017-06-26T01:44:04.732Z,62.00
2017-06-26T01:46:32.619Z,62.20
2017-06-26T01:49:00.067Z,62.20
2017-06-26T01:51:28.844Z,62.40
2017-06-26T01:53:56.311Z,62.40
2017-06-26T01:56:24.677Z,62.40
2017-06-26T01:58:52.180Z,62.40
2017-06-26T02:01:19.629Z,62.60
2017-06-26T02:03:47.482Z,62.70
2017-06-26T02:06:14.949Z,62.70
2017-06-26T02:08:42.502Z,62.60
2017-06-26T02:11:09.952Z,62.50
2017-06-26T02:13:37.415Z,62.70
2017-06-26T02:16:04.913Z,62.70
2017-06-26T02:18:32.796Z,62.70
2017-06-26T02:21:00.248Z,62.70
2017-06-26T02:23:28.093Z,62.70
2017-06-26T02:25:55.598Z,62.70
2017-06-26T02:28:23.776Z,62.80
2017-06-26T02:30:51.232Z,62.80
2017-06-26T02:33:18.700Z,62.70
2017-06-26T02:35:46.200Z,62.60
2017-06-26T02:38:13.668Z,62.70
2017-06-26T02:40:41.119Z,62.70
2017-06-26T02:43:08.821Z,62.80
2017-06-26T02:45:36.266Z,63.10
2017-06-26T02:48:03.713Z,63.10
2017-06-26T02:50:31.209Z,63.10
2017-06-26T02:52:58.661Z,63.20
2017-06-26T02:55:26.109Z,63.10
2017-06-26T02:57:53.787Z,63.20
2017-06-26T03:00:21.232Z,63.30
2017-06-26T03:02:48.684Z,63.30
2017-06-26T03:05:17.112Z,63.30
2017-06-26T03:07:44.970Z,63.30
2017-06-26T03:10:12.425Z,63.30
2017-06-26T03:12:39.885Z,63.40
2017-06-26T03:15:07.344Z,63.50
2017-06-26T03:17:34.938Z,63.40
2017-06-26T03:20:02.790Z,63.10
2017-06-26T03:22:30.236Z,63.10
2017-06-26T03:24:57.725Z,63.20
2017-06-26T03:27:25.288Z,63.20
2017-06-26T03:29:52.742Z,63.20
2017-06-26T03:32:20.227Z,63.50
2017-06-26T03:34:48.089Z,63.80
2017-06-26T03:37:15.543Z,63.80
2017-06-26T03:39:43.220Z,63.90
2017-06-26T03:42:11.196Z,64.00
2017-06-26T03:44:38.651Z,64.20
2017-06-26T03:47:06.131Z,64.30
2017-06-26T03:49:33.983Z,64.60
2017-06-26T03:52:01.429Z,64.60
2017-06-26T03:54:28.929Z,64.70
2017-06-26T03:56:56.396Z,64.70
2017-06-26T03:59:23.847Z,64.80
2017-06-26T04:01:51.584Z,64.90
2017-06-26T04:04:19.033Z,64.90
2017-06-26T04:06:46.526Z,65.00
2017-06-26T04:09:14.081Z,65.10
2017-06-26T04:11:41.559Z,65.20
2017-06-26T04:14:09.805Z,65.50
2017-06-26T04:16:37.296Z,65.50
2017-06-26T04:19:04.821Z,65.40
2017-06-26T04:21:32.334Z,65.50
2017-06-26T04:24:00.247Z,65.50
2017-06-26T04:26:27.750Z,65.50
2017-06-26T04:28:55.364Z,65.50
2017-06-26T04:31:22.834Z,65.40
2017-06-26T04:33:50.296Z,65.50
2017-06-26T04:36:17.808Z,65.50
2017-06-26T04:38:45.299Z,65.40
2017-06-26T04:41:13.533Z,65.40
2017-06-26T04:43:41.000Z,65.40
2017-06-26T04:46:08.466Z,65.60
2017-06-26T04:48:36.010Z,65.40
2017-06-26T04:51:03.485Z,65.40
2017-06-26T04:53:30.975Z,65.30
2017-06-26T04:55:58.899Z,65.30
2017-06-26T04:58:26.376Z,65.30
2017-06-26T05:00:54.751Z,65.30
2017-06-26T05:03:22.262Z,65.40
2017-06-26T05:05:50.144Z,65.30
2017-06-26T05:08:17.672Z,65.30
2017-06-26T05:10:45.157Z,65.20
2017-06-26T05:13:13.052Z,65.30
2017-06-26T05:15:40.566Z,65.30
2017-06-26T05:18:08.034Z,65.40
2017-06-26T05:20:35.493Z,65.40
2017-06-26T05:23:03.021Z,65.40
2017-06-26T05:25:30.500Z,65.20
2017-06-26T05:27:58.238Z,65.10
2017-06-26T05:30:25.746Z,65.10
2017-06-26T05:32:53.300Z,65.10
2017-06-26T05:35:20.771Z,65.40
2017-06-26T05:37:48.251Z,64.90
2017-06-26T05:40:15.923Z,65.10
2017-06-26T05:42:43.795Z,65.60
2017-06-26T05:45:11.265Z,65.60
2017-06-26T05:47:39.186Z,64.60
2017-06-26T05:50:06.661Z,64.60
2017-06-26T05:52:34.144Z,64.30
2017-06-26T05:55:01.638Z,64.10
2017-06-26T05:57:29.104Z,64.20
2017-06-26T05:59:56.626Z,63.40
2017-06-26T06:02:24.091Z,63.30
2017-06-26T06:04:51.720Z,62.70
2017-06-26T06:20:25.393Z,62.70
2017-06-26T06:22:52.844Z,59.40
2017-06-26T06:25:20.350Z,59.60
2017-06-26T06:27:47.871Z,59.60
2017-06-26T06:30:16.019Z,59.40
2017-06-26T06:32:43.515Z,59.00
2017-06-26T06:35:11.009Z,58.10
2017-06-26T06:37:38.468Z,58.00
2017-06-26T06:40:05.968Z,58.00
2017-06-26T06:42:33.903Z,58.90
2017-06-26T06:45:01.349Z,58.90
2017-06-26T06:47:28.830Z,58.80
2017-06-26T06:49:56.602Z,59.00
2017-06-26T06:52:24.079Z,59.10
2017-06-26T06:54:51.542Z,60.00
2017-06-26T06:57:19.059Z,59.80
2017-06-26T06:59:46.530Z,59.70
2017-06-26T07:02:14.857Z,59.60
2017-06-26T07:04:42.386Z,59.90
2017-06-26T07:07:09.845Z,59.80
2017-06-26T07:09:37.474Z,59.90
2017-06-26T07:12:05.411Z,59.80
2017-06-26T07:14:32.869Z,59.80
2017-06-26T07:17:00.413Z,59.40
2017-06-26T07:19:27.855Z,58.90
2017-06-26T07:21:55.330Z,58.60
2017-06-26T07:24:22.852Z,58.50
2017-06-26T07:26:50.743Z,58.40
2017-06-26T07:29:18.225Z,58.50
2017-06-26T07:31:45.878Z,58.20
2017-06-26T07:34:13.369Z,58.00
2017-06-26T07:36:40.864Z,57.30
2017-06-26T07:39:08.752Z,56.00
2017-06-26T07:41:36.621Z,55.90
2017-06-26T07:44:05.029Z,56.30
2017-06-26T07:46:32.518Z,56.30
2017-06-26T07:49:00.011Z,56.00
2017-06-26T07:51:27.522Z,56.00
2017-06-26T07:53:55.002Z,56.10
2017-06-26T07:56:22.534Z,55.70
2017-06-26T07:58:50.046Z,55.80
2017-06-26T08:01:17.582Z,55.80
2017-06-26T08:03:45.072Z,55.20
2017-06-26T08:06:12.602Z,54.40
2017-06-26T08:08:40.080Z,54.90
2017-06-26T08:11:07.556Z,54.60
2017-06-26T08:13:35.208Z,55.00
2017-06-26T08:16:02.671Z,54.40
2017-06-26T08:18:30.197Z,54.60
2017-06-26T08:20:58.661Z,52.80
2017-06-26T08:23:26.544Z,53.50
2017-06-26T08:25:54.420Z,53.90
2017-06-26T08:30:56.762Z,53.50
2017-06-26T08:33:24.270Z,53.50
2017-06-26T08:35:52.186Z,53.20
2017-06-26T08:38:19.713Z,53.20
2017-06-26T08:40:47.611Z,52.50
2017-06-26T08:43:15.103Z,52.50
2017-06-26T08:45:42.574Z,52.60
2017-06-26T08:48:10.119Z,51.90
2017-06-26T08:50:37.622Z,51.90
2017-06-26T08:53:05.108Z,51.50
2017-06-26T08:55:33.044Z,52.10
2017-06-26T08:58:00.761Z,52.10
2017-06-26T09:03:02.349Z,51.50
2017-06-26T09:05:30.382Z,50.70
2017-06-26T09:07:58.329Z,50.90
2017-06-26T09:10:25.824Z,50.90
2017-06-26T09:12:53.693Z,51.10
2017-06-26T09:15:21.749Z,50.50
2017-06-26T09:17:49.237Z,50.50
2017-06-26T09:20:17.106Z,50.40
2017-06-26T09:22:45.032Z,50.00
2017-06-26T09:25:12.512Z,50.00
2017-06-26T09:27:40.008Z,49.50
2017-06-26T09:30:07.894Z,48.80
2017-06-26T09:32:35.491Z,48.80
2017-06-26T09:35:02.961Z,48.70
2017-06-26T09:37:30.606Z,48.80
2017-06-26T09:39:58.124Z,48.10
2017-06-26T09:42:25.967Z,47.40
2017-06-26T09:44:54.102Z,47.40
2017-06-26T09:47:21.605Z,46.90
2017-06-26T09:49:49.076Z,46.50
2017-06-26T09:52:16.874Z,45.70
2017-06-26T09:54:44.756Z,44.50
2017-06-26T09:57:12.644Z,44.00
2017-06-26T09:59:40.152Z,44.00
2017-06-26T10:02:07.652Z,43.70
2017-06-26T10:04:35.560Z,42.70
2017-06-26T10:07:03.031Z,42.70
2017-06-26T10:09:30.534Z,42.00
2017-06-26T10:11:59.667Z,40.40
2017-06-26T10:14:27.171Z,40.40
2017-06-26T10:16:54.647Z,40.10
2017-06-26T10:19:22.202Z,39.90
2017-06-26T10:21:49.692Z,40.60
2017-06-26T10:24:18.384Z,41.80
2017-06-26T10:26:46.284Z,42.70
2017-06-26T10:29:13.762Z,42.70
2017-06-26T10:31:41.293Z,43.20
2017-06-26T10:34:08.794Z,43.90
2017-06-26T10:36:36.308Z,44.40
2017-06-26T10:39:04.481Z,45.20
2017-06-26T10:41:32.790Z,45.70
2017-06-26T10:44:00.290Z,45.70
2017-06-26T10:46:27.785Z,45.90
2017-06-26T10:48:55.283Z,46.00
2017-06-26T10:51:22.849Z,46.10
2017-06-26T10:53:50.329Z,46.90
2017-06-26T10:56:17.822Z,46.90
2017-06-26T10:58:45.325Z,47.60
2017-06-26T11:01:12.815Z,47.00
2017-06-26T11:03:40.349Z,47.20
2017-06-26T11:06:08.219Z,47.20
2017-06-26T11:08:35.702Z,47.20
2017-06-26T11:11:03.246Z,47.10
2017-06-26T11:13:30.740Z,47.90
2017-06-26T11:15:58.909Z,47.80
2017-06-26T11:18:27.250Z,47.80
2017-06-26T11:20:55.892Z,47.90
2017-06-26T11:23:24.060Z,48.00
2017-06-26T11:25:52.439Z,47.50
2017-06-26T11:28:19.898Z,47.10
2017-06-26T11:30:47.398Z,47.60
2017-06-26T11:33:15.101Z,47.50
2017-06-26T11:35:42.963Z,47.70
2017-06-26T11:38:10.833Z,47.50
2017-06-26T11:40:38.380Z,47.50
2017-06-26T11:43:05.874Z,47.60
2017-06-26T11:45:33.773Z,46.60
2017-06-26T11:48:01.288Z,46.60
2017-06-26T11:50:29.161Z,47.40
2017-06-26T11:52:56.644Z,47.40
2017-06-26T11:55:24.506Z,46.60
2017-06-26T11:57:52.416Z,46.20
2017-06-26T12:00:19.882Z,46.20
2017-06-26T12:02:47.423Z,46.40
2017-06-26T12:05:14.901Z,45.80
2017-06-26T12:07:42.659Z,45.80
2017-06-26T12:10:10.199Z,46.00
2017-06-26T12:12:38.116Z,46.10
2017-06-26T12:15:05.576Z,46.10
2017-06-26T12:17:33.398Z,46.30
2017-06-26T12:20:01.247Z,46.60
2017-06-26T12:22:28.724Z,46.60
2017-06-26T12:24:56.273Z,46.10
2017-06-26T12:27:23.772Z,45.40
2017-06-26T12:29:51.700Z,45.90
2017-06-26T12:32:19.176Z,45.90
2017-06-26T12:34:46.647Z,45.70
2017-06-26T12:37:14.214Z,46.40
2017-06-26T12:39:42.098Z,45.50
2017-06-26T12:42:09.973Z,45.30
2017-06-26T12:44:37.962Z,45.80
2017-06-26T12:47:05.469Z,45.80
2017-06-26T12:49:32.939Z,45.10
2017-06-26T12:52:00.620Z,44.90
2017-06-26T12:54:28.110Z,44.90
2017-06-26T12:56:55.601Z,45.30
2017-06-26T12:59:23.794Z,45.10
2017-06-26T13:01:51.277Z,44.40
2017-06-26T13:04:19.227Z,44.10
2017-06-26T13:06:46.692Z,44.10
2017-06-26T13:09:14.204Z,44.10
2017-06-26T13:11:42.110Z,44.40
2017-06-26T13:14:09.577Z,44.40
2017-06-26T13:16:37.125Z,43.30
2017-06-26T13:19:04.628Z,44.10
2017-06-26T13:21:32.113Z,44.00
2017-06-26T13:24:00.080Z,44.80
2017-06-26T13:26:27.568Z,44.70
2017-06-26T13:28:55.676Z,43.60
2017-06-26T13:31:23.403Z,43.60
2017-06-26T13:33:51.284Z,43.60
2017-06-26T13:36:19.873Z,43.60
2017-06-26T13:38:47.421Z,43.60
2017-06-26T13:41:14.886Z,43.30
2017-06-26T13:43:42.792Z,43.80
2017-06-26T13:46:10.544Z,43.80
2017-06-26T13:48:38.040Z,44.50
2017-06-26T13:51:05.512Z,44.40
2017-06-26T13:53:33.032Z,45.00
2017-06-26T13:56:00.532Z,44.40
2017-06-26T13:58:28.056Z,45.20
2017-06-26T14:00:56.132Z,44.40
2017-06-26T14:03:24.005Z,43.40
2017-06-26T14:05:51.884Z,43.90
2017-06-26T14:08:19.418Z,43.90
2017-06-26T14:10:47.311Z,42.90
2017-06-26T14:13:15.199Z,42.90
2017-06-26T14:15:43.274Z,42.90
2017-06-26T14:18:10.783Z,42.80
2017-06-26T14:20:38.316Z,42.60
2017-06-26T14:23:05.839Z,42.90
2017-06-26T14:25:33.712Z,42.70
2017-06-26T14:28:01.640Z,42.60
2017-06-26T14:30:29.107Z,42.60
2017-06-26T14:32:56.587Z,43.40
2017-06-26T14:35:24.870Z,44.10
2017-06-26T14:37:52.898Z,43.30
2017-06-26T14:40:20.875Z,44.60
2017-06-26T14:42:49.268Z,44.50
2017-06-26T14:45:17.124Z,44.50
2017-06-26T14:47:45.915Z,44.50
2017-06-26T14:50:13.422Z,44.40
2017-06-26T14:52:41.784Z,44.80
2017-06-26T14:55:09.917Z,44.10
2017-06-26T14:57:38.116Z,44.30
2017-06-26T15:00:05.755Z,44.30
2017-06-26T15:02:33.730Z,44.40
2017-06-26T15:05:01.626Z,44.60
2017-06-26T15:07:29.259Z,44.60
2017-06-26T15:09:56.805Z,44.50
2017-06-26T15:12:24.375Z,44.10
2017-06-26T15:14:51.898Z,43.80
2017-06-26T15:17:19.499Z,43.80
2017-06-26T15:19:47.328Z,43.80
2017-06-26T15:22:14.877Z,44.30
2017-06-26T15:24:42.857Z,44.60
2017-06-26T15:27:10.483Z,44.50
2017-06-26T15:29:38.174Z,44.90
2017-06-26T15:32:06.416Z,44.60
2017-06-26T15:34:33.949Z,44.60
2017-06-26T15:37:01.608Z,44.50
2017-06-26T15:39:30.023Z,44.40
2017-06-26T15:41:58.786Z,44.70
2017-06-26T15:44:26.472Z,44.60
2017-06-26T15:46:54.022Z,44.50
2017-06-26T15:49:21.538Z,44.60
2017-06-26T15:51:49.438Z,45.20
2017-06-26T15:54:19.519Z,45.20
2017-06-26T15:56:46.996Z,44.90
2017-06-26T15:59:15.147Z,45.00
2017-06-26T16:01:42.850Z,46.00
2017-06-26T16:04:11.351Z,45.40
2017-06-26T16:06:39.079Z,45.40
2017-06-26T16:09:07.083Z,45.70
2017-06-26T16:11:35.126Z,45.60
2017-06-26T16:14:02.989Z,45.70
2017-06-26T16:16:30.852Z,45.80
2017-06-26T16:18:58.946Z,46.00
2017-06-26T16:21:26.849Z,45.70
2017-06-26T16:23:55.219Z,45.70
2017-06-26T16:26:23.768Z,45.80
2017-06-26T16:28:51.641Z,45.80
2017-06-26T16:31:19.445Z,46.10
2017-06-26T16:33:47.554Z,46.10
2017-06-26T16:36:15.504Z,46.10
2017-06-26T16:38:43.429Z,46.30
2017-06-26T16:41:10.916Z,46.30
2017-06-26T16:43:39.210Z,46.20
2017-06-26T16:46:07.391Z,46.30
2017-06-26T16:48:35.275Z,46.40
2017-06-26T16:51:03.194Z,46.40
2017-06-26T16:53:30.805Z,46.40
2017-06-26T16:56:00.939Z,46.90
2017-06-26T16:58:28.513Z,46.80
2017-06-26T17:00:55.974Z,46.70
2017-06-26T17:03:23.465Z,46.40
2017-06-26T17:05:51.166Z,46.40
2017-06-26T17:08:18.661Z,46.40
2017-06-26T17:10:46.121Z,47.10
2017-06-26T17:13:13.658Z,46.80
2017-06-26T17:15:41.572Z,47.30
2017-06-26T17:18:09.377Z,47.30
2017-06-26T17:20:36.929Z,47.20
2017-06-26T17:23:04.410Z,47.40
2017-06-26T17:25:32.077Z,47.20
2017-06-26T17:27:59.542Z,47.10
2017-06-26T17:30:27.022Z,47.30
2017-06-26T17:32:54.787Z,47.60
2017-06-26T17:35:22.249Z,48.10
2017-06-26T17:37:49.757Z,48.40
2017-06-26T17:40:17.290Z,49.00
2017-06-26T17:42:45.203Z,48.50
2017-06-26T17:45:12.727Z,48.50
2017-06-26T17:47:40.699Z,48.60
2017-06-26T17:50:08.636Z,48.60
2017-06-26T17:52:36.576Z,48.50
2017-06-26T17:55:04.113Z,48.50
2017-06-26T17:57:32.014Z,48.80
2017-06-26T17:59:59.611Z,48.80
2017-06-26T18:02:27.567Z,49.10
2017-06-26T18:04:55.036Z,49.10
2017-06-26T18:07:22.496Z,49.50
2017-06-26T18:09:50.205Z,49.10
2017-06-26T18:12:18.126Z,49.20
2017-06-26T18:14:45.606Z,49.30
2017-06-26T18:17:13.303Z,49.20
2017-06-26T18:19:41.195Z,49.30
2017-06-26T18:22:09.126Z,49.50
2017-06-26T18:24:36.701Z,49.40
2017-06-26T18:27:04.244Z,49.70
2017-06-26T18:29:31.954Z,49.70
2017-06-26T18:31:59.450Z,49.50
2017-06-26T18:34:26.960Z,49.50
2017-06-26T18:36:54.523Z,49.90
2017-06-26T18:39:22.103Z,49.80
2017-06-26T18:41:49.989Z,50.20
2017-06-26T18:44:17.941Z,50.00
2017-06-26T18:46:45.457Z,50.00
2017-06-26T18:49:14.033Z,49.90
2017-06-26T18:51:41.602Z,50.10
2017-06-26T18:54:09.115Z,50.10
2017-06-26T18:56:36.876Z,50.40
2017-06-26T18:59:04.404Z,50.80
2017-06-26T19:01:31.964Z,51.10
2017-06-26T19:03:59.586Z,51.00
2017-06-26T19:06:27.651Z,50.90
2017-06-26T19:08:55.399Z,50.90
2017-06-26T19:11:22.888Z,51.00
2017-06-26T19:13:50.340Z,50.90
2017-06-26T19:16:17.819Z,51.40
2017-06-26T19:18:45.726Z,52.00
2017-06-26T19:21:13.184Z,52.00
2017-06-26T19:23:40.673Z,52.00
2017-06-26T19:26:08.668Z,51.60
2017-06-26T19:28:36.219Z,52.10
2017-06-26T19:31:03.825Z,51.90
2017-06-26T19:33:31.693Z,52.00
2017-06-26T19:35:59.631Z,52.00
2017-06-26T19:38:27.112Z,52.00
2017-06-26T19:40:54.572Z,52.10
2017-06-26T19:43:22.091Z,52.20
2017-06-26T19:45:49.615Z,52.50
2017-06-26T19:48:17.529Z,52.80
2017-06-26T19:50:45.014Z,52.80
2017-06-26T19:53:12.519Z,53.10
2017-06-26T19:55:40.470Z,53.20
2017-06-26T19:58:07.957Z,53.20
2017-06-26T20:00:35.827Z,53.00
2017-06-26T20:03:03.886Z,53.00
2017-06-26T20:05:32.072Z,53.00
2017-06-26T20:07:59.944Z,53.60
2017-06-26T20:10:27.844Z,53.50
2017-06-26T20:12:55.452Z,53.50
2017-06-26T20:15:22.962Z,53.40
2017-06-26T20:17:50.865Z,53.60
2017-06-26T20:20:18.912Z,53.60
2017-06-26T20:22:46.387Z,53.90
2017-06-26T20:25:14.114Z,53.90
2017-06-26T20:27:41.627Z,53.80
2017-06-26T20:30:09.109Z,53.90
2017-06-26T20:32:36.639Z,53.90
2017-06-26T20:35:04.199Z,54.40
2017-06-26T20:37:31.684Z,54.70
2017-06-26T20:39:59.172Z,54.40
2017-06-26T20:42:26.661Z,54.30
2017-06-26T20:44:54.191Z,54.60
2017-06-26T20:47:21.682Z,54.80
2017-06-26T20:49:49.595Z,55.00
2017-06-26T20:52:17.666Z,55.00
2017-06-26T20:54:45.163Z,55.00
2017-06-26T20:57:12.662Z,55.40
2017-06-26T20:59:40.684Z,55.60
2017-06-26T21:02:08.169Z,55.60
2017-06-26T21:04:35.678Z,55.70
2017-06-26T21:07:03.191Z,55.70
2017-06-26T21:09:31.376Z,55.70
2017-06-26T21:12:00.242Z,55.80
2017-06-26T21:14:27.734Z,55.90
2017-06-26T21:16:55.200Z,56.00
2017-06-26T21:19:22.716Z,55.90
2017-06-26T21:21:50.207Z,56.00
2017-06-26T21:24:17.703Z,56.00
2017-06-26T21:26:45.221Z,56.00
2017-06-26T21:29:12.746Z,55.90
2017-06-26T21:31:40.622Z,56.10
2017-06-26T21:34:08.998Z,56.20
2017-06-26T21:36:36.462Z,56.20
2017-06-26T21:39:04.332Z,56.50
2017-06-26T21:41:32.246Z,56.60
2017-06-26T21:43:59.722Z,56.60
2017-06-26T21:46:27.228Z,56.50
2017-06-26T21:48:55.302Z,56.90
2017-06-26T21:51:23.198Z,56.90
2017-06-26T21:53:51.097Z,57.00
2017-06-26T21:56:18.718Z,57.00
2017-06-26T21:58:46.582Z,57.10
2017-06-26T22:01:14.109Z,57.10
2017-06-26T22:03:41.891Z,57.20
2017-06-26T22:06:09.355Z,57.10
2017-06-26T22:08:36.871Z,57.20
2017-06-26T22:11:04.456Z,57.30
2017-06-26T22:13:31.996Z,57.30
2017-06-26T22:15:59.542Z,57.40
2017-06-26T22:18:27.829Z,57.50
2017-06-26T22:20:56.442Z,57.60
2017-06-26T22:23:23.975Z,57.60
2017-06-26T22:25:51.948Z,57.80
2017-06-26T22:28:19.510Z,57.80
2017-06-26T22:30:47.430Z,57.60
2017-06-26T22:33:15.028Z,57.60
2017-06-26T22:35:42.783Z,57.60
2017-06-26T22:38:10.256Z,57.70
2017-06-26T22:40:37.788Z,57.60
2017-06-26T22:43:05.355Z,57.60
2017-06-26T22:45:32.902Z,57.80
2017-06-26T22:48:00.467Z,57.90
2017-06-26T22:50:27.975Z,58.00
2017-06-26T22:52:55.694Z,58.10
2017-06-26T22:55:23.234Z,58.00
2017-06-26T22:57:50.732Z,57.80
2017-06-26T23:00:18.239Z,58.00
2017-06-26T23:02:45.779Z,58.10
2017-06-26T23:05:13.279Z,58.10
2017-06-26T23:07:41.387Z,58.10
2017-06-26T23:10:08.930Z,58.10
2017-06-26T23:12:36.834Z,58.40
2017-06-26T23:15:04.527Z,58.40
2017-06-26T23:17:32.069Z,58.40
2017-06-26T23:19:59.598Z,58.30
2017-06-26T23:22:27.514Z,58.40
2017-06-26T23:24:55.040Z,58.40
2017-06-26T23:27:23.025Z,58.60
2017-06-26T23:29:50.537Z,58.60
2017-06-26T23:32:18.059Z,58.60
2017-06-26T23:34:45.592Z,58.60
2017-06-26T23:37:13.081Z,58.60
2017-06-26T23:39:41.389Z,58.60
2017-06-26T23:42:08.898Z,58.60
2017-06-26T23:44:36.790Z,58.70
2017-06-26T23:47:04.341Z,58.70
2017-06-26T23:49:32.288Z,58.70
2017-06-26T23:51:59.803Z,58.90
2017-06-26T23:54:27.321Z,59.00
2017-06-26T23:56:54.880Z,59.00
2017-06-26T23:59:22.500Z,59.10
